Brookline, New Hampshire
Current Conditions -  °F | °C
As of 9:51 PM on Saturday 22 Nov 2014 (Local Time) from KASH Reporting Station
Broken Clouds Broken Clouds  
Wind Chill: 40°   Ceiling: 10000
Heat Index: 40°   Visibility: 10mi
Dew Point: 14°   Wind: 0mph
Humidity: 35%   Direction: NA
Pressure: 30.06"   Gusts: NA
Location:  42.73°N, 71.66°W
Report Text: KASH 230251Z AUTO 00000KT 10SM SCT070 BKN100 04/M10 A3006 RMK AO2 56011 T00441100 SLP434
Loading
Personal Weather Stations






























Interactive Weather Map New forecast layout! Learn more

10-Day Weather Forecast

Advertisements
Track Severe Weather on mobile